Time;durP1;ratioP1;P1;durP2;ratioP2;P2;SDS_P1;SDS_P2;PMS_P1;PMS_P2;Temp;Humidity;BMP_temperature;BMP_pressure;BME280_temperature;BME280_humidity;BME280_pressure;Samples;Min_cycle;Max_cycle;Signal;HPM_P1;HPM_P2
2022/08/11 00:02:07;;;;;;;0.52;0.50;;;;;;;29.74;37.98;99176.97;5112524;28;19915;-57
2022/08/11 00:04:38;;;;;;;0.80;0.60;;;;;;;29.73;37.66;99183.06;5104456;28;20051;-56
2022/08/11 00:07:05;;;;;;;0.60;0.40;;;;;;;29.72;37.68;99185.06;5111657;28;20460;-57
2022/08/11 00:09:35;;;;;;;1.15;0.60;;;;;;;29.71;38.13;99191.94;5112204;28;20130;-57
2022/08/11 00:12:01;;;;;;;0.50;0.50;;;;;;;29.71;38.14;99191.94;5112284;28;20063;-56
2022/08/11 00:14:29;;;;;;;0.65;0.50;;;;;;;29.72;38.12;99189.91;5112177;28;20449;-57
2022/08/11 00:17:07;;;;;;;0.55;0.40;;;;;;;29.73;37.95;99191.50;5112093;28;20043;-57
2022/08/11 00:19:47;;;;;;;0.93;0.60;;;;;;;29.72;37.72;99195.53;5111962;28;20475;-57
2022/08/11 00:22:20;;;;;;;0.70;0.50;;;;;;;29.72;37.82;99201.16;5112170;28;20511;-57
2022/08/11 00:24:45;;;;;;;;;;;;;;;29.77;37.87;99203.47;5112494;28;20044;-56
2022/08/11 00:27:11;;;;;;;0.95;0.55;;;;;;;29.75;37.73;99194.66;5111801;28;19984;-57
2022/08/11 00:29:36;;;;;;;0.90;0.50;;;;;;;29.73;38.17;99197.94;5109606;28;20048;-56
2022/08/11 00:32:05;;;;;;;0.70;0.50;;;;;;;29.72;37.81;99193.53;5111916;28;20051;-56
2022/08/11 00:34:36;;;;;;;0.40;0.40;;;;;;;29.71;37.95;99191.94;5112051;28;20126;-57
2022/08/11 00:37:16;;;;;;;0.93;0.50;;;;;;;29.72;37.78;99192.72;5111961;28;20055;-57
2022/08/11 00:39:44;;;;;;;0.35;0.35;;;;;;;29.72;38.11;99198.34;5111763;28;20180;-56
2022/08/11 00:42:40;;;;;;;0.73;0.60;;;;;;;29.71;38.12;99199.59;5093144;28;20055;-56
2022/08/11 00:45:47;;;;;;;0.45;0.32;;;;;;;29.72;38.19;99198.34;5111668;28;20039;-56
2022/08/11 00:48:31;;;;;;;0.82;0.60;;;;;;;29.72;38.09;99204.00;4989446;28;20058;-57
2022/08/11 00:51:17;;;;;;;1.35;0.63;;;;;;;29.71;38.09;99206.03;4989760;28;20051;-57
2022/08/11 00:54:01;;;;;;;0.57;0.50;;;;;;;29.71;38.12;99208.84;4989524;28;20637;-56
2022/08/11 00:56:57;;;;;;;0.88;0.50;;;;;;;29.71;37.89;99220.13;4989825;28;20042;-56
2022/08/11 00:59:48;;;;;;;0.75;0.60;;;;;;;29.71;38.25;99219.31;4990190;28;20051;-56
2022/08/11 01:02:16;;;;;;;0.57;0.50;;;;;;;29.71;38.00;99213.69;4989316;28;20112;-56
2022/08/11 01:05:18;;;;;;;0.63;0.50;;;;;;;29.71;38.13;99213.69;4989092;28;20038;-56
2022/08/11 01:08:06;;;;;;;0.40;0.40;;;;;;;29.72;37.88;99209.63;4989541;28;20090;-56
2022/08/11 01:10:49;;;;;;;1.27;0.50;;;;;;;29.70;37.92;99206.47;4991221;28;20101;-56
2022/08/11 01:13:37;;;;;;;0.70;0.52;;;;;;;29.71;38.29;99213.69;4989241;28;20101;-57
2022/08/11 01:16:36;;;;;;;0.55;0.50;;;;;;;29.71;38.00;99213.69;4980536;28;20614;-57
2022/08/11 01:19:39;;;;;;;3.20;0.50;;;;;;;29.71;37.91;99210.88;5049135;28;20062;-56
2022/08/11 01:22:37;;;;;;;0.95;0.57;;;;;;;29.71;38.26;99213.69;5110740;28;20048;-56
2022/08/11 01:25:37;;;;;;;0.80;0.50;;;;;;;29.71;38.17;99222.16;5110961;28;20073;-56
2022/08/11 01:28:20;;;;;;;0.77;0.50;;;;;;;29.71;38.23;99230.59;4988720;28;20097;-56
2022/08/11 01:31:08;;;;;;;0.82;0.52;;;;;;;29.71;38.19;99224.97;4989103;28;20087;-57
2022/08/11 01:34:19;;;;;;;0.77;0.50;;;;;;;29.70;38.06;99218.53;4988707;28;20077;-56
2022/08/11 01:37:06;;;;;;;0.82;0.60;;;;;;;29.70;38.12;99217.75;4989176;28;20173;-56
2022/08/11 01:39:44;;;;;;;0.63;0.57;;;;;;;29.71;38.20;99224.97;4988889;28;20144;-57
2022/08/11 01:45:25;;;;;;;1.02;0.60;;;;;;;29.71;38.29;99230.59;4989611;28;20061;-57
2022/08/11 01:48:14;;;;;;;0.43;0.40;;;;;;;29.70;38.17;99231.84;4990561;28;20133;-56
2022/08/11 01:50:58;;;;;;;0.73;0.50;;;;;;;29.71;38.12;99234.22;4989957;28;20046;-57
2022/08/11 01:53:37;;;;;;;0.55;0.40;;;;;;;29.71;38.33;99241.88;4990217;28;20042;-57
2022/08/11 01:56:09;;;;;;;0.80;0.50;;;;;;;29.70;38.42;99231.84;4988802;28;20108;-57
2022/08/11 01:59:17;;;;;;;0.93;0.50;;;;;;;29.69;38.41;99227.44;4988313;28;20188;-57
2022/08/11 02:02:05;;;;;;;0.50;0.47;;;;;;;29.71;37.99;99225.75;5018151;28;20130;-56
2022/08/11 02:04:30;;;;;;;1.80;0.50;;;;;;;29.72;37.96;99226.53;5110326;28;20035;-57
2022/08/11 02:07:14;;;;;;;1.53;0.60;;;;;;;29.71;38.25;99224.97;5110382;28;20043;-57
2022/08/11 02:11:29;;;;;;;0.90;0.52;;;;;;;29.70;38.15;99229.81;5110550;28;20277;-57
2022/08/11 02:12:53;;;;;;;0.50;0.40;;;;;;;29.72;38.13;99226.53;5110132;28;20070;-57
2022/08/11 02:15:36;;;;;;;0.60;0.52;;;;;;;29.69;38.05;99228.22;5110301;28;20043;-57
2022/08/11 02:18:23;;;;;;;1.15;0.80;;;;;;;29.71;38.07;99224.97;5110093;28;20059;-56
2022/08/11 02:23:51;;;;;;;0.63;0.43;;;;;;;29.71;37.98;99222.16;5110226;28;20556;-57
2022/08/11 02:26:54;;;;;;;1.38;0.70;;;;;;;29.72;38.21;99221.72;5107554;28;20400;-57
2022/08/11 02:29:43;;;;;;;0.73;0.38;;;;;;;29.73;38.33;99225.34;5109797;28;20120;-57
2022/08/11 02:35:19;;;;;;;1.02;0.60;;;;;;;29.74;38.41;99227.72;5110108;28;20050;-57
2022/08/11 02:37:59;;;;;;;1.13;0.60;;;;;;;29.75;38.33;99225.69;5110171;28;20503;-56
2022/08/11 02:40:37;;;;;;;0.57;0.50;;;;;;;29.74;38.32;99222.06;5110049;28;20051;-56
2022/08/11 02:43:02;;;;;;;0.57;0.50;;;;;;;29.75;38.00;99225.69;5109882;28;20455;-57
2022/08/11 02:45:53;;;;;;;0.40;0.40;;;;;;;29.76;38.10;99221.63;5109908;28;20078;-57
2022/08/11 02:52:00;;;;;;;0.40;0.38;;;;;;;29.77;38.08;99217.56;5107696;28;20047;-56
2022/08/11 02:54:45;;;;;;;0.50;0.50;;;;;;;29.76;37.95;99222.41;5109614;28;20599;-56
2022/08/11 02:57:22;;;;;;;0.60;0.50;;;;;;;29.76;37.98;99219.59;5109931;28;20075;-57
2022/08/11 03:00:06;;;;;;;1.02;0.50;;;;;;;29.76;38.42;99222.41;5109499;28;20051;-57
2022/08/11 03:02:48;;;;;;;0.52;0.50;;;;;;;29.76;38.03;99216.78;5109711;28;20137;-56
2022/08/11 03:05:15;;;;;;;0.53;0.50;;;;;;;29.79;38.32;99215.09;5109767;28;20051;-56
2022/08/11 03:08:22;;;;;;;0.50;0.50;;;;;;;29.77;38.31;99218.34;5109529;28;20269;-57
2022/08/11 03:16:54;;;;;;;0.43;0.43;;;;;;;29.78;38.38;99225.56;5104508;28;20572;-57
2022/08/11 03:19:37;;;;;;;;;;;;;;;29.84;38.15;99228.66;5105984;28;20079;-56
2022/08/11 03:22:22;;;;;;;0.70;0.50;;;;;;;29.81;38.44;99226.75;5109401;28;19916;-56
2022/08/11 03:24:57;;;;;;;0.40;0.40;;;;;;;29.80;38.12;99230.81;5109550;28;20471;-56
2022/08/11 03:27:25;;;;;;;0.65;0.45;;;;;;;29.79;38.25;99226.38;5109424;28;20134;-56
2022/08/11 03:30:12;;;;;;;0.88;0.60;;;;;;;29.78;38.01;99225.56;5109580;28;20475;-56
2022/08/11 03:35:53;;;;;;;0.60;0.55;;;;;;;29.80;37.98;99216.69;5109443;28;20061;-57
2022/08/11 03:38:24;;;;;;;0.90;0.60;;;;;;;29.78;38.30;99217.13;5109162;28;20044;-57
2022/08/11 03:44:35;;;;;;;0.60;0.45;;;;;;;29.80;37.98;99220.31;5110299;28;20050;-57
2022/08/11 03:47:43;;;;;;;0.60;0.50;;;;;;;29.81;38.05;99229.56;5098736;28;20521;-56
2022/08/11 03:50:29;;;;;;;0.85;0.60;;;;;;;29.81;38.23;99230.34;5049442;28;20060;-56
2022/08/11 03:53:09;;;;;;;0.50;0.50;;;;;;;29.81;37.92;99238.03;5049521;28;20056;-56
2022/08/11 03:56:11;;;;;;;0.55;0.50;;;;;;;29.81;38.32;99238.03;5049471;28;20456;-56
2022/08/11 03:59:05;;;;;;;0.85;0.40;;;;;;;29.82;37.96;99245.25;5049358;28;20060;-57
2022/08/11 04:02:00;;;;;;;0.80;0.60;;;;;;;29.81;38.23;99240.84;5049549;28;20053;-56
2022/08/11 04:04:43;;;;;;;0.65;0.50;;;;;;;29.80;38.44;99242.88;5049482;28;20053;-57
2022/08/11 04:07:42;;;;;;;0.80;0.50;;;;;;;29.79;38.07;99246.94;5049371;28;20521;-56
2022/08/11 04:10:07;;;;;;;0.43;0.40;;;;;;;29.81;38.32;99254.94;5049307;28;20052;-57
2022/08/11 04:13:10;;;;;;;0.53;0.50;;;;;;;29.80;38.35;99259.78;5049268;28;20052;-56
2022/08/11 04:16:02;;;;;;;;;;;;;;;29.85;37.90;99258.44;5049707;28;20291;-56
2022/08/11 04:18:39;;;;;;;0.40;0.40;;;;;;;29.83;38.07;99249.63;5049134;28;19924;-56
2022/08/11 04:21:13;;;;;;;0.52;0.50;;;;;;;29.82;37.93;99259.34;5048982;28;20060;-56
2022/08/11 04:24:11;;;;;;;0.88;0.60;;;;;;;29.81;37.99;99267.00;5049097;28;20053;-56
2022/08/11 04:27:14;;;;;;;0.50;0.50;;;;;;;29.80;38.20;99254.16;5065166;28;20079;-56
2022/08/11 04:30:02;;;;;;;0.63;0.50;;;;;;;29.81;38.38;99257.75;5111785;28;20051;-57
2022/08/11 04:33:14;;;;;;;0.70;0.45;;;;;;;29.82;37.99;99264.97;5111822;28;20047;-57
2022/08/11 04:40:00;;;;;;;0.65;0.40;;;;;;;29.82;38.37;99271.41;4930147;29;20074;-56
2022/08/11 04:43:22;;;;;;;0.50;0.47;;;;;;;29.82;38.29;99281.91;4921835;29;20143;-57
2022/08/11 04:46:33;;;;;;;0.63;0.50;;;;;;;29.81;38.07;99274.69;4931756;29;20078;-56
2022/08/11 05:01:42;;;;;;;;;;;;;;;29.87;38.17;99278.56;4893563;29;20119;-57
2022/08/11 05:07:39;;;;;;;0.95;0.60;;;;;;;29.80;37.95;99284.38;4891885;29;20546;-57
2022/08/11 05:10:33;;;;;;;0.88;0.55;;;;;;;29.80;38.24;99290.00;4896356;29;20052;-56
2022/08/11 05:36:25;;;;;;;0.88;0.60;;;;;;;29.82;38.25;99304.44;5110096;28;20526;-57
2022/08/11 05:58:32;;;;;;;0.50;0.50;;;;;;;29.82;38.27;99319.34;5110569;28;20108;-56
2022/08/11 06:00:58;;;;;;;0.50;0.50;;;;;;;29.84;38.48;99318.91;5110676;28;20055;-57
2022/08/11 06:03:28;;;;;;;1.05;0.60;;;;;;;29.73;37.88;99313.53;5110459;28;20288;-57
2022/08/11 06:05:55;;;;;;;0.55;0.40;;;;;;;29.56;37.77;99309.88;5109930;28;20054;-57
2022/08/11 06:08:35;;;;;;;0.63;0.50;;;;;;;29.38;39.02;99309.47;5110448;28;20051;-57
2022/08/11 06:11:04;;;;;;;0.60;0.50;;;;;;;29.26;39.17;99304.50;5110385;28;20499;-57
2022/08/11 06:13:30;;;;;;;0.50;0.50;;;;;;;29.11;39.45;99312.47;5110271;28;20407;-57
2022/08/11 06:15:57;;;;;;;0.68;0.40;;;;;;;29.03;39.57;99306.19;5110220;28;20514;-56
2022/08/11 06:18:24;;;;;;;0.98;0.55;;;;;;;29.00;39.74;99307.03;5110295;28;20078;-57
2022/08/11 06:20:57;;;;;;;0.60;0.60;;;;;;;29.00;39.61;99311.88;5110226;28;20040;-56
2022/08/11 06:23:29;;;;;;;0.68;0.45;;;;;;;29.01;39.56;99308.66;5110029;28;20075;-56
2022/08/11 06:25:57;;;;;;;0.55;0.50;;;;;;;29.00;39.57;99309.84;5110045;28;20044;-56
2022/08/11 06:28:36;;;;;;;0.80;0.60;;;;;;;29.01;39.38;99305.81;5110138;28;20128;-56
2022/08/11 06:31:11;;;;;;;1.13;0.60;;;;;;;28.98;39.50;99308.69;5110404;28;20096;-56
2022/08/11 06:33:46;;;;;;;0.70;0.50;;;;;;;29.03;39.41;99311.81;5110134;28;20040;-56
2022/08/11 06:36:30;;;;;;;0.88;0.68;;;;;;;29.00;39.26;99304.22;5110006;28;20055;-56
2022/08/11 06:39:19;;;;;;;0.65;0.50;;;;;;;29.00;39.03;99307.03;5110175;28;20495;-56
2022/08/11 06:41:51;;;;;;;0.80;0.60;;;;;;;28.94;39.12;99299.56;5082784;28;20044;-56
2022/08/11 06:44:27;;;;;;;0.75;0.60;;;;;;;28.93;39.24;99297.94;5109793;28;20048;-56
2022/08/11 06:46:54;;;;;;;0.68;0.52;;;;;;;28.98;39.07;99298.22;5107684;28;20039;-57
2022/08/11 06:52:16;;;;;;;1.23;0.60;;;;;;;28.89;39.35;99298.00;5110326;28;20577;-57
2022/08/11 06:54:53;;;;;;;0.60;0.50;;;;;;;28.87;38.95;99296.84;5109604;28;20423;-59
2022/08/11 07:02:53;;;;;;;0.50;0.40;;;;;;;28.89;38.90;99295.19;5109731;28;20082;-58
2022/08/11 07:05:42;;;;;;;0.85;0.60;;;;;;;28.88;38.93;99292.81;5109692;28;20403;-59
2022/08/11 07:17:16;;;;;;;0.75;0.60;;;;;;;28.86;38.50;99289.59;5110816;28;20055;-59
2022/08/11 07:31:05;;;;;;;0.80;0.60;;;;;;;28.83;38.40;99280.00;5113220;28;20407;-59
2022/08/11 07:33:41;;;;;;;0.70;0.60;;;;;;;28.80;38.30;99275.25;5112627;28;20043;-59
2022/08/11 07:36:11;;;;;;;0.43;0.43;;;;;;;28.76;38.47;99275.31;5112632;28;20036;-59
2022/08/11 07:39:03;;;;;;;0.60;0.50;;;;;;;28.78;38.46;99277.69;5112463;28;20078;-59
2022/08/11 07:41:33;;;;;;;0.65;0.50;;;;;;;28.79;38.64;99276.47;5107609;28;20050;-59
2022/08/11 07:44:07;;;;;;;0.70;0.60;;;;;;;28.73;38.69;99267.75;5112720;28;20103;-59
2022/08/11 07:52:28;;;;;;;0.70;0.50;;;;;;;28.76;39.12;99269.69;5112768;28;20094;-59
2022/08/11 07:55:02;;;;;;;0.40;0.40;;;;;;;28.73;39.19;99259.31;5112441;28;20396;-59
2022/08/11 08:19:35;;;;;;;1.05;0.60;;;;;;;28.87;38.83;99241.34;5111969;28;20472;-59
2022/08/11 08:22:02;;;;;;;0.80;0.60;;;;;;;28.84;38.72;99241.38;5111877;28;20062;-59
2022/08/11 08:24:28;;;;;;;0.80;0.50;;;;;;;28.83;38.93;99234.19;5111757;28;20040;-59
2022/08/11 08:26:58;;;;;;;0.50;0.50;;;;;;;28.86;38.60;99222.81;5111867;28;20620;-59
2022/08/11 08:32:15;;;;;;;0.47;0.47;;;;;;;28.85;38.79;99220.44;5112105;28;20140;-58
2022/08/11 08:34:41;;;;;;;0.40;0.40;;;;;;;28.85;38.69;99226.88;5111822;28;20057;-58
2022/08/11 08:37:07;;;;;;;0.70;0.50;;;;;;;28.87;38.59;99224.44;5111881;28;20371;-59
2022/08/11 08:39:33;;;;;;;1.15;0.60;;;;;;;28.90;38.41;99222.75;5111862;28;20050;-59
2022/08/11 08:42:01;;;;;;;0.73;0.50;;;;;;;28.90;38.35;99212.28;5111634;28;20407;-59
2022/08/11 08:44:31;;;;;;;0.90;0.60;;;;;;;28.90;38.65;99208.69;5092864;28;20404;-59
2022/08/11 08:46:59;;;;;;;0.75;0.50;;;;;;;28.88;38.41;99209.13;5111666;28;20040;-59
2022/08/11 08:49:34;;;;;;;0.57;0.45;;;;;;;28.88;38.37;99216.78;5111657;28;20043;-59
2022/08/11 08:52:06;;;;;;;0.60;0.50;;;;;;;28.89;38.65;99205.06;5111748;28;20051;-59
2022/08/11 08:54:36;;;;;;;;;;;;;;;28.95;38.31;99205.41;5111924;28;20078;-59
2022/08/11 08:57:04;;;;;;;0.32;0.32;;;;;;;28.88;38.52;99200.69;5111354;28;19916;-58
2022/08/11 08:59:32;;;;;;;0.82;0.50;;;;;;;28.87;38.36;99196.28;5111322;28;20121;-58
2022/08/11 09:02:03;;;;;;;0.50;0.43;;;;;;;28.88;38.30;99197.88;5111487;28;20073;-59
2022/08/11 09:04:30;;;;;;;0.40;0.40;;;;;;;28.89;38.50;99191.00;5111353;28;20039;-59
2022/08/11 09:06:58;;;;;;;0.65;0.47;;;;;;;28.90;38.40;99186.16;5111308;28;20051;-59
2022/08/11 09:09:25;;;;;;;0.93;0.50;;;;;;;28.86;38.41;99174.97;5111295;28;20042;-59
2022/08/11 09:11:52;;;;;;;0.90;0.50;;;;;;;28.90;38.39;99181.31;5111310;28;20071;-59
2022/08/11 09:17:19;;;;;;;1.10;0.50;;;;;;;28.89;38.32;99171.28;5111199;28;20062;-59
2022/08/11 09:19:46;;;;;;;0.70;0.50;;;;;;;28.91;38.19;99168.84;5092910;28;20138;-58
2022/08/11 09:27:47;;;;;;;0.68;0.40;;;;;;;28.91;38.17;99163.22;5111166;28;20126;-59
2022/08/11 09:30:12;;;;;;;0.75;0.50;;;;;;;28.91;37.89;99165.25;5111114;28;20134;-59
2022/08/11 09:32:40;;;;;;;0.68;0.50;;;;;;;28.92;38.19;99155.56;5110849;28;20118;-58
2022/08/11 09:35:07;;;;;;;0.60;0.40;;;;;;;28.90;38.06;99149.56;5110835;28;20092;-59
2022/08/11 09:40:28;;;;;;;0.95;0.65;;;;;;;28.95;38.06;99140.63;5109636;28;20090;-59
2022/08/11 09:45:51;;;;;;;1.27;0.60;;;;;;;28.92;37.88;99139.47;5111139;28;20080;-59
2022/08/11 09:48:20;;;;;;;0.73;0.50;;;;;;;28.91;37.74;99131.47;5110840;28;20035;-59
2022/08/11 09:50:52;;;;;;;0.85;0.50;;;;;;;28.90;37.73;99124.22;5110700;28;20415;-59
2022/08/11 09:53:21;;;;;;;0.82;0.63;;;;;;;28.92;38.19;99128.19;5110750;28;20112;-59
2022/08/11 09:55:48;;;;;;;0.60;0.50;;;;;;;28.92;38.02;99124.59;5110734;28;20036;-59
2022/08/11 09:58:16;;;;;;;0.90;0.57;;;;;;;28.93;37.79;99126.19;5110564;28;20078;-59
2022/08/11 10:00:44;;;;;;;0.50;0.43;;;;;;;28.89;37.96;99125.47;5110765;28;20071;-59
2022/08/11 10:03:12;;;;;;;0.60;0.50;;;;;;;28.88;37.78;99119.03;5110431;28;20563;-59
2022/08/11 10:08:29;;;;;;;1.17;0.60;;;;;;;28.91;38.06;99106.13;5110765;28;20119;-59
2022/08/11 10:10:56;;;;;;;0.40;0.40;;;;;;;28.91;37.94;99101.28;5110314;28;20445;-59
2022/08/11 10:13:32;;;;;;;0.85;0.50;;;;;;;28.90;37.97;99096.06;5110514;28;20548;-59
2022/08/11 10:16:02;;;;;;;0.88;0.52;;;;;;;28.90;37.86;99088.41;5110416;28;20039;-59
2022/08/11 10:18:50;;;;;;;0.52;0.40;;;;;;;28.88;37.80;99085.25;5110192;28;20036;-59
2022/08/11 10:21:33;;;;;;;0.57;0.45;;;;;;;28.87;37.52;99080.84;5106696;28;20114;-59
2022/08/11 10:26:57;;;;;;;0.60;0.40;;;;;;;28.75;38.32;99071.06;5110086;28;20120;-59
2022/08/11 10:35:07;;;;;;;0.93;0.60;;;;;;;28.82;38.17;99064.47;5110225;28;20058;-59
2022/08/11 10:37:35;;;;;;;0.70;0.47;;;;;;;28.82;37.42;99070.09;5110090;28;20047;-59
2022/08/11 10:40:03;;;;;;;0.60;0.47;;;;;;;28.77;37.83;99062.16;5109798;28;20083;-59
2022/08/11 10:47:59;;;;;;;0.57;0.50;;;;;;;28.76;38.25;99043.69;5110058;28;20054;-59
2022/08/11 11:01:15;;;;;;;0.65;0.45;;;;;;;28.86;38.07;99022.94;5113513;28;20048;-59
2022/08/11 11:03:41;;;;;;;0.70;0.50;;;;;;;28.87;38.19;99018.13;5113341;28;20054;-58
2022/08/11 11:06:34;;;;;;;0.52;0.50;;;;;;;28.89;37.86;99019.25;5113356;28;20039;-59
2022/08/11 11:09:05;;;;;;;0.43;0.40;;;;;;;28.85;37.39;99018.53;5113265;28;20104;-59
2022/08/11 11:18:00;;;;;;;0.60;0.50;;;;;;;28.77;38.37;99003.06;5113496;28;20065;-59
2022/08/11 11:20:37;;;;;;;0.65;0.52;;;;;;;28.76;38.44;98998.66;5113124;28;20051;-58
2022/08/11 11:23:12;;;;;;;0.47;0.40;;;;;;;28.81;38.36;98995.34;5112945;28;20128;-59
2022/08/11 11:26:06;;;;;;;0.52;0.50;;;;;;;28.86;38.26;98994.78;5113015;28;20044;-59
2022/08/11 11:28:43;;;;;;;0.70;0.57;;;;;;;28.87;37.92;98993.56;5112954;28;20104;-59
2022/08/11 11:31:44;;;;;;;0.45;0.40;;;;;;;28.78;37.48;98990.56;5112978;28;20059;-59
2022/08/11 11:34:40;;;;;;;0.60;0.50;;;;;;;28.75;38.36;98980.19;5113068;28;20109;-59
2022/08/11 11:37:06;;;;;;;1.52;0.50;;;;;;;28.72;38.39;98970.63;5112727;28;20134;-59
2022/08/11 11:39:34;;;;;;;0.40;0.40;;;;;;;28.73;38.31;98971.41;5112692;28;20209;-59
2022/08/11 11:42:03;;;;;;;0.55;0.45;;;;;;;28.75;38.45;98964.09;5112669;28;20465;-59
2022/08/11 11:44:30;;;;;;;0.93;0.60;;;;;;;28.80;38.41;98971.22;5112604;28;20032;-59
2022/08/11 11:46:58;;;;;;;0.50;0.40;;;;;;;28.82;38.26;98962.34;5112590;28;20054;-56
2022/08/11 11:49:27;;;;;;;0.40;0.38;;;;;;;28.84;37.99;98957.84;5112258;28;20388;-56
2022/08/11 11:51:55;;;;;;;0.82;0.50;;;;;;;28.85;38.21;98950.97;5112648;28;20043;-56
2022/08/11 11:54:24;;;;;;;1.15;0.45;;;;;;;28.86;37.91;98946.94;5112472;28;20097;-56
2022/08/11 11:56:52;;;;;;;0.90;0.50;;;;;;;28.90;37.97;98953.25;5112491;28;20040;-57
2022/08/11 12:02:06;;;;;;;0.68;0.43;;;;;;;28.81;37.73;98941.84;5112055;28;20101;-56
2022/08/11 12:04:31;;;;;;;0.60;0.40;;;;;;;28.77;37.93;98941.13;5112155;28;20502;-57
2022/08/11 12:08:13;;;;;;;0.57;0.40;;;;;;;28.75;37.79;98932.34;5112386;28;20103;-57
2022/08/11 12:09:46;;;;;;;0.32;0.30;;;;;;;28.76;37.86;98942.38;5112097;28;20043;-57
2022/08/11 12:14:57;;;;;;;0.60;0.40;;;;;;;28.82;37.68;98926.53;5112352;28;20146;-57
2022/08/11 12:17:23;;;;;;;0.40;0.40;;;;;;;28.86;37.83;98923.63;5112274;28;20481;-57
2022/08/11 12:19:49;;;;;;;0.30;0.30;;;;;;;28.88;37.51;98918.34;5112132;28;20130;-57
2022/08/11 12:27:45;;;;;;;0.43;0.38;;;;;;;28.89;37.72;98901.00;5112321;28;20105;-57
2022/08/11 12:30:12;;;;;;;0.40;0.40;;;;;;;28.92;37.51;98913.44;5111955;28;20051;-56
2022/08/11 12:32:39;;;;;;;0.60;0.47;;;;;;;28.93;37.40;98912.97;5112099;28;20097;-56
2022/08/11 12:35:05;;;;;;;0.63;0.47;;;;;;;28.91;37.13;98895.75;5111912;28;20044;-56
2022/08/11 12:37:35;;;;;;;0.60;0.50;;;;;;;28.92;37.55;98900.16;5111909;28;20048;-57
2022/08/11 12:45:40;;;;;;;0.43;0.40;;;;;;;28.97;37.21;98887.56;5111725;28;20054;-57
2022/08/11 12:54:09;;;;;;;0.73;0.47;;;;;;;28.98;37.28;98872.25;5111769;28;20411;-57
2022/08/11 13:05:03;;;;;;;0.35;0.30;;;;;;;28.98;36.93;98872.25;5111189;28;20153;-56
2022/08/11 13:07:31;;;;;;;0.55;0.50;;;;;;;29.00;37.47;98855.69;5111410;28;20400;-57
2022/08/11 13:09:58;;;;;;;0.40;0.30;;;;;;;28.98;37.12;98856.13;5111303;28;20043;-56
2022/08/11 13:15:10;;;;;;;0.50;0.40;;;;;;;28.97;37.23;98843.31;5111239;28;20128;-56
2022/08/11 13:17:37;;;;;;;0.55;0.40;;;;;;;28.98;37.08;98847.69;5111285;28;20054;-56
2022/08/11 13:20:05;;;;;;;0.40;0.40;;;;;;;29.00;36.85;98844.44;5111152;28;20073;-57
2022/08/11 13:22:30;;;;;;;0.45;0.43;;;;;;;29.00;37.12;98842.41;5111055;28;20051;-56
2022/08/11 13:24:57;;;;;;;0.65;0.50;;;;;;;29.01;36.74;98843.22;5111192;28;20548;-56
2022/08/11 13:27:23;;;;;;;0.73;0.40;;;;;;;29.00;36.83;98833.94;5111180;28;20043;-56
2022/08/11 13:29:52;;;;;;;0.30;0.30;;;;;;;29.02;36.94;98834.31;5111040;28;20172;-57
2022/08/11 13:32:20;;;;;;;0.50;0.40;;;;;;;29.00;36.83;98828.31;5111006;28;20071;-57
2022/08/11 13:34:46;;;;;;;0.40;0.40;;;;;;;29.03;36.86;98827.44;5111029;28;20044;-56
2022/08/11 13:37:13;;;;;;;0.55;0.50;;;;;;;29.03;36.75;98821.81;5111086;28;20584;-56
2022/08/11 13:39:46;;;;;;;0.85;0.47;;;;;;;29.03;36.65;98815.41;5110833;28;20532;-56
2022/08/11 13:42:13;;;;;;;0.75;0.50;;;;;;;28.95;36.55;98808.38;5092716;28;20055;-57
2022/08/11 13:44:40;;;;;;;0.40;0.40;;;;;;;28.91;37.02;98787.97;5110956;28;20132;-56
2022/08/11 13:47:07;;;;;;;0.40;0.40;;;;;;;28.88;36.84;98802.94;5110788;28;20057;-57
2022/08/11 13:49:36;;;;;;;0.35;0.30;;;;;;;28.87;37.16;98801.34;5110721;28;20422;-56
2022/08/11 13:52:03;;;;;;;0.57;0.43;;;;;;;28.88;36.99;98800.91;5110740;28;20051;-57
2022/08/11 13:54:37;;;;;;;0.93;0.43;;;;;;;28.91;36.86;98802.06;5110779;28;20035;-56
2022/08/11 13:57:06;;;;;;;0.40;0.40;;;;;;;28.90;36.97;98786.38;5110653;28;20039;-56
2022/08/11 13:59:32;;;;;;;0.70;0.50;;;;;;;28.95;36.87;98789.47;5110434;28;20522;-59
2022/08/11 14:02:02;;;;;;;0.55;0.40;;;;;;;28.96;36.83;98781.81;5110765;28;20065;-59
2022/08/11 14:04:33;;;;;;;0.80;0.50;;;;;;;28.94;36.99;98779.44;5110411;28;20040;-59
2022/08/11 14:07:04;;;;;;;0.45;0.40;;;;;;;28.97;37.09;98789.81;5110402;28;20560;-59
2022/08/11 14:09:38;;;;;;;0.57;0.47;;;;;;;28.97;37.04;98787.00;5110554;28;20123;-59
2022/08/11 14:15:11;;;;;;;0.50;0.50;;;;;;;28.90;37.04;98778.72;5110324;28;20419;-59
2022/08/11 14:17:39;;;;;;;0.40;0.40;;;;;;;28.83;37.32;98778.13;5110508;28;20101;-58
2022/08/11 14:20:08;;;;;;;0.93;0.40;;;;;;;28.84;37.23;98774.06;5110064;28;20104;-59
2022/08/11 14:22:39;;;;;;;0.40;0.40;;;;;;;28.87;37.45;98773.19;5110049;28;20047;-59
2022/08/11 14:25:05;;;;;;;0.63;0.40;;;;;;;28.86;36.96;98772.38;5109889;28;20096;-59
2022/08/11 14:27:31;;;;;;;0.30;0.30;;;;;;;28.82;36.90;98768.91;5109872;28;20046;-58
2022/08/11 14:29:57;;;;;;;0.95;0.35;;;;;;;28.73;37.49;98751.88;5110275;28;20126;-59
2022/08/11 14:32:25;;;;;;;0.60;0.47;;;;;;;28.74;37.38;98765.50;5109906;28;20491;-59
2022/08/11 14:34:51;;;;;;;0.90;0.55;;;;;;;28.76;37.32;98773.50;5110038;28;20063;-59
2022/08/11 14:37:22;;;;;;;0.50;0.45;;;;;;;28.76;37.28;98774.28;5109974;28;20035;-59
2022/08/11 14:39:55;;;;;;;0.60;0.40;;;;;;;28.80;37.24;98768.56;5109954;28;20127;-59
2022/08/11 14:48:04;;;;;;;0.82;0.50;;;;;;;28.89;37.21;98767.91;5109990;28;20580;-59
2022/08/11 14:50:32;;;;;;;0.77;0.60;;;;;;;28.90;37.12;98761.81;5110005;28;20144;-59
2022/08/11 14:53:05;;;;;;;1.10;0.52;;;;;;;28.89;36.87;98765.09;5109938;28;20111;-59
2022/08/11 14:58:23;;;;;;;0.50;0.50;;;;;;;28.91;37.10;98752.16;5109924;28;20058;-59
2022/08/11 15:00:54;;;;;;;0.82;0.50;;;;;;;28.92;36.94;98736.84;5109922;28;20036;-59
2022/08/11 15:03:21;;;;;;;0.50;0.40;;;;;;;28.94;36.79;98733.63;5109799;28;20040;-59
2022/08/11 15:05:55;;;;;;;0.38;0.30;;;;;;;28.95;36.73;98735.19;5109586;28;20048;-59
2022/08/11 15:08:53;;;;;;;0.55;0.40;;;;;;;28.95;36.67;98707.81;5109543;28;20521;-59
2022/08/11 15:13:59;;;;;;;0.40;0.40;;;;;;;28.97;36.79;98722.22;5109908;28;20530;-59
2022/08/11 15:19:12;;;;;;;0.40;0.30;;;;;;;28.99;36.51;98725.38;5109438;28;20098;-58
2022/08/11 15:24:23;;;;;;;0.35;0.35;;;;;;;28.89;36.44;98729.28;5109906;28;20043;-59
2022/08/11 15:37:57;;;;;;;0.80;0.60;;;;;;;28.86;37.06;98718.13;5110511;28;20096;-59
2022/08/11 15:46:28;;;;;;;0.45;0.40;;;;;;;28.77;37.50;98705.47;5112739;28;20062;-59
2022/08/11 15:48:59;;;;;;;0.57;0.40;;;;;;;28.69;37.39;98706.94;5112797;28;20048;-59
2022/08/11 15:51:54;;;;;;;0.43;0.40;;;;;;;28.71;37.52;98709.28;5112546;28;20036;-60
2022/08/11 15:54:24;;;;;;;0.80;0.47;;;;;;;28.77;37.56;98701.88;5112357;28;20531;-59
2022/08/11 15:56:51;;;;;;;0.35;0.35;;;;;;;28.79;37.19;98708.66;5112443;28;20063;-59
2022/08/11 16:04:51;;;;;;;0.40;0.30;;;;;;;28.69;37.71;98706.16;5112245;28;20070;-59
2022/08/11 16:07:25;;;;;;;0.70;0.40;;;;;;;28.71;37.73;98710.09;5112398;28;20272;-59
2022/08/11 16:10:11;;;;;;;0.43;0.40;;;;;;;28.74;37.52;98699.97;5112216;28;20329;-59
2022/08/11 16:16:13;;;;;;;0.57;0.40;;;;;;;28.77;37.61;98705.47;5112233;28;20431;-59
2022/08/11 16:18:17;;;;;;;0.38;0.38;;;;;;;28.73;37.23;98702.00;5112276;28;20526;-59
2022/08/11 16:20:45;;;;;;;0.68;0.40;;;;;;;28.70;37.55;98702.88;5111924;28;20066;-59
2022/08/11 16:23:14;;;;;;;0.85;0.50;;;;;;;28.67;37.91;98703.00;5112136;28;20108;-57
2022/08/11 16:25:41;;;;;;;0.45;0.38;;;;;;;28.69;37.53;98701.31;5112084;28;20051;-59
2022/08/11 16:28:10;;;;;;;0.80;0.50;;;;;;;28.73;37.69;98692.78;5109777;28;20059;-59
2022/08/11 16:30:41;;;;;;;0.40;0.40;;;;;;;28.76;37.55;98692.66;5112133;28;20047;-59
2022/08/11 16:33:09;;;;;;;0.68;0.45;;;;;;;28.76;37.08;98701.09;5112155;28;20108;-59
2022/08/11 16:38:35;;;;;;;0.57;0.47;;;;;;;28.66;37.81;98695.78;5111904;28;20101;-59
2022/08/11 16:46:57;;;;;;;0.52;0.50;;;;;;;28.66;37.67;98696.56;5111820;28;20040;-59
2022/08/11 16:46:59;;;;;;;0.57;0.50;;;;;;;28.73;37.88;98687.16;5111523;28;20113;-59
2022/08/11 16:49:45;;;;;;;0.43;0.40;;;;;;;28.75;37.64;98684.66;5111040;28;20051;-59
2022/08/11 16:52:11;;;;;;;0.50;0.47;;;;;;;28.76;37.38;98687.03;5111569;28;20385;-59
2022/08/11 16:54:38;;;;;;;0.60;0.40;;;;;;;28.71;37.53;98687.56;5111604;28;20043;-59